Pagina principală
METAR-TAF:

METAR-TAF

Aeroporturi :

Weipa, Australia

Latitudine: 12-40-43S, longitudine: 141-55-31E, elevație: 19 m

Observații meteo curente

Raportul a fost făcut în urmă cu 42 de minute, la 09:00 UTC
Vânt 4 kt de la Sud/Sud-est
Temperatură 28°C
Umiditate 79%
Presiune 1007 hPa
Vizibilitate de 10 km sau mai mult

METAR: YBWP 290900Z AUTO 15004KT 9999 // NCD 28/24 Q1007

Ora: 19:42 (09:42 UTC)


TAF: lipsă

Observații și prognoze meteo pentru peste 4.000 de aeroporturi (rapoarte METAR și TAF).

Stațiile disponibile sunt reprezentate pe hartă prin puncte galbene și roșii.

Țineți indicatorul mouse-ului pe punctul dorit pentru a vedea denumirea stației.

Apoi, faceți clic pentru a vedea observațiile și prognozele meteorologice.

Pentru a schimba harta: Pentru mărire, faceți clic pe butoanele verzi cu cruce neagră; pentru micșorare, pe butonul verde cu o liniuță; pentru hărți învecinate, pe săgețile verzi.


METAR-TAF: